Toledo, OH (43617)

10:57 PM EST on February 09, 2016 (GMT -0500)
Toledo Allergy | | Change Station
CLOSE
Current Station
Personal Weather Station
Location: Sylvania, OH
Elevation: 669 ft
Nearby Weather Stations

Elev 669 ft 41.69 °N, 83.73 °W | Updated 4 seconds ago

Overcast
Overcast
24.6 °F
Feels Like 14 °F
N
11.2
Wind Variable Wind from WSW
Gusts 11.2 mph

Today
High -- | Low -- °F
--% Chance of Precip.
Yesterday
High -- | Low -- °F
Precip. -- in
Pressure 29.78 in
Visibility 10.0 miles
Clouds Mostly Cloudy 2300 ft
Overcast 3100 ft
Windchill 14 °F
Dew Point Not available.
Humidity Not available.
Rainfall in
Snow Depth Not available.
7:38 AM 6:00 PM
Waxing Crescent, 3% visible
METAR KTDZ 100353Z AUTO 27016KT 10SM BKN023 OVC031 M03/M08 A2976 RMK AO2 SLP085 T10331078
Pressure 29.78 in
Visibility 10.0 miles
Clouds Mostly Cloudy 2300 ft
Overcast 3100 ft
Windchill 14 °F
Dew Point Not available.
Humidity Not available.
Rainfall in
Snow Depth Not available.
7:38 AM 6:00 PM
Waxing Crescent, 3% visible
METAR KTDZ 100353Z AUTO 27016KT 10SM BKN023 OVC031 M03/M08 A2976 RMK AO2 SLP085 T10331078

10-Day Weather Forecast

Almanac

Astronomy

Feb. 09, 2016 Rise Set
Actual Time
Civil Twilight
Nautical Twilight
Astronomical Twilight
Moon
Length of Visible Light
Length of Day
Tomorrow will be .
, % of the Moon is Illuminated

Today's Extremes

State Highs State Lows

Community

WunderPhotos

Upload Photos

1,891,792 photos uploaded!

WunderBlog® & News

Nearby

Air Quality

  Air Quality AQ Index Pollutant
Not available.

Snow Depth

Station Depth Elevation

Earthquake Activity

City Distance Mag. Time & Date
Minimum magnitude displayed is 2.5.

Coastal Water Temperatures

Place Temperature

Stations

Nearby Weather Stations

Station Location Temp. Windchill Dew Point Humidity Wind Precip. Elev Updated Type
                   

Watches & Warnings

There are currently no watches in effect.